createdAt,value
2022-09-12T02:46:21.159Z,46.64
2022-09-12T02:47:21.111Z,54.10
2022-09-12T02:48:22.377Z,45.23
2022-09-12T02:49:22.353Z,45.70
2022-09-12T02:50:22.181Z,48.62
2022-09-12T02:51:23.791Z,43.65
2022-09-12T02:52:23.169Z,48.79
2022-09-12T02:53:22.183Z,49.28
2022-09-12T02:54:22.215Z,45.87
2022-09-12T02:55:22.109Z,52.42
2022-09-12T02:56:22.105Z,53.50
2022-09-12T02:57:23.253Z,52.90
2022-09-12T02:58:23.087Z,54.97
2022-09-12T02:59:22.064Z,51.48
2022-09-12T03:00:22.063Z,52.82
2022-09-12T03:01:22.164Z,52.79
2022-09-12T03:02:22.084Z,48.88
2022-09-12T03:03:22.092Z,52.30
2022-09-12T03:04:22.063Z,48.86
2022-09-12T03:05:22.039Z,41.40
2022-09-12T03:06:22.041Z,49.79
2022-09-12T03:07:22.008Z,54.07
2022-09-12T03:08:22.069Z,47.49
2022-09-12T03:09:22.010Z,49.91
2022-09-12T03:10:21.976Z,51.46
2022-09-12T03:11:21.937Z,53.03
2022-09-12T03:12:21.981Z,51.66
2022-09-12T03:13:21.953Z,53.63
2022-09-12T03:14:21.953Z,53.72
2022-09-12T03:15:21.918Z,48.12
2022-09-12T03:16:21.986Z,52.27
2022-09-12T03:17:21.937Z,51.18
2022-09-12T03:18:21.889Z,51.66
2022-09-12T03:19:21.893Z,51.11
2022-09-12T03:20:21.906Z,55.96
2022-09-12T03:21:21.863Z,55.34
2022-09-12T03:22:21.828Z,52.15
2022-09-12T03:23:22.067Z,51.38
2022-09-12T03:24:21.813Z,52.54
2022-09-12T03:25:21.780Z,55.85
2022-09-12T03:26:21.869Z,55.50
2022-09-12T03:27:22.632Z,53.99
2022-09-12T03:28:21.825Z,54.02
2022-09-12T03:29:21.845Z,55.08
2022-09-12T03:30:21.835Z,53.54
2022-09-12T03:31:21.787Z,55.05
2022-09-12T03:32:21.754Z,51.39
2022-09-12T03:33:21.775Z,52.23
2022-09-12T03:34:21.772Z,53.35
2022-09-12T03:35:23.163Z,56.95
2022-09-12T03:36:22.737Z,59.03
2022-09-12T03:37:21.732Z,54.24
2022-09-12T03:38:21.752Z,56.65
2022-09-12T03:39:21.708Z,56.03
2022-09-12T03:40:21.694Z,54.60
2022-09-12T03:41:21.660Z,57.64
2022-09-12T03:42:22.542Z,55.07
2022-09-12T03:43:21.680Z,56.80
2022-09-12T03:44:21.648Z,54.15
2022-09-12T03:45:21.654Z,54.36
2022-09-12T03:46:22.132Z,55.44
2022-09-12T03:47:21.639Z,55.60
2022-09-12T03:48:21.617Z,55.20
2022-09-12T03:49:21.606Z,54.16
2022-09-12T03:50:21.569Z,56.70
2022-09-12T03:51:21.590Z,54.77
2022-09-12T03:52:21.548Z,56.77
2022-09-12T03:53:21.599Z,54.99
2022-09-12T03:54:21.514Z,56.67
2022-09-12T03:55:21.530Z,54.32
2022-09-12T03:56:21.509Z,55.59
2022-09-12T03:57:21.536Z,57.77
2022-09-12T03:58:21.559Z,54.76
2022-09-12T03:59:21.483Z,52.37
2022-09-12T04:00:21.495Z,56.26
2022-09-12T04:01:21.542Z,54.78
2022-09-12T04:02:21.543Z,58.32
2022-09-12T04:03:21.484Z,55.41
2022-09-12T04:04:21.463Z,57.12
2022-09-12T04:05:21.434Z,55.67
2022-09-12T04:06:21.391Z,55.64
2022-09-12T04:07:21.471Z,55.23
2022-09-12T04:08:21.426Z,58.54
2022-09-12T04:09:21.377Z,55.01
2022-09-12T04:10:21.368Z,58.63
2022-09-12T04:11:21.406Z,56.94
2022-09-12T04:12:21.344Z,56.15
2022-09-12T04:13:21.354Z,56.04
2022-09-12T04:14:21.407Z,53.95
2022-09-12T04:15:21.349Z,55.75
2022-09-12T04:16:21.341Z,58.51
2022-09-12T04:17:21.354Z,58.36
2022-09-12T04:18:21.336Z,53.07
2022-09-12T04:19:21.327Z,59.90
2022-09-12T04:20:21.318Z,60.17
2022-09-12T04:21:22.000Z,59.23
2022-09-12T04:22:21.253Z,58.60
2022-09-12T04:23:21.720Z,59.41
2022-09-12T04:24:21.227Z,57.11
2022-09-12T04:25:21.229Z,55.93
2022-09-12T04:26:21.227Z,58.29
2022-09-12T04:27:21.193Z,58.10
2022-09-12T04:28:21.289Z,57.66
2022-09-12T04:29:21.169Z,59.91
2022-09-12T04:30:21.173Z,54.34
2022-09-12T04:31:21.168Z,57.05
2022-09-12T04:32:21.122Z,59.90
2022-09-12T04:33:21.145Z,56.55
2022-09-12T04:34:21.175Z,56.31
2022-09-12T04:35:21.153Z,55.54
2022-09-12T04:36:21.118Z,59.08
2022-09-12T04:37:21.158Z,57.28
2022-09-12T04:38:21.161Z,58.07
2022-09-12T04:39:21.121Z,56.04
2022-09-12T04:40:21.082Z,58.12
2022-09-12T04:41:21.087Z,60.91
2022-09-12T04:42:21.146Z,57.84
2022-09-12T04:43:21.046Z,57.14
2022-09-12T04:44:21.040Z,59.66
2022-09-12T04:45:21.042Z,58.71
2022-09-12T04:46:21.011Z,58.95
2022-09-12T04:47:21.018Z,56.59
2022-09-12T04:48:21.032Z,60.81
2022-09-12T04:49:20.989Z,58.16
2022-09-12T04:50:20.940Z,59.52
2022-09-12T04:51:20.970Z,57.38
2022-09-12T04:52:20.953Z,60.13
2022-09-12T04:53:20.939Z,59.75
2022-09-12T04:54:20.974Z,58.93
2022-09-12T04:55:20.954Z,58.32
2022-09-12T04:56:20.924Z,58.24
2022-09-12T04:57:21.516Z,59.33
2022-09-12T04:58:20.959Z,58.76
2022-09-12T04:59:20.893Z,59.43
2022-09-12T05:00:20.926Z,59.11
2022-09-12T05:01:20.955Z,61.14
2022-09-12T05:02:20.893Z,59.41
2022-09-12T05:03:20.861Z,58.45
2022-09-12T05:04:20.825Z,58.06
2022-09-12T05:05:20.826Z,57.90
2022-09-12T05:06:20.823Z,54.48
2022-09-12T05:07:20.847Z,57.36
2022-09-12T05:08:21.052Z,58.01
2022-09-12T05:09:20.838Z,59.53
2022-09-12T05:10:20.773Z,58.70
2022-09-12T05:11:24.752Z,58.05
2022-09-12T05:12:22.724Z,58.68
2022-09-12T05:13:24.085Z,58.14
2022-09-12T05:14:20.727Z,58.16
2022-09-12T05:15:22.775Z,58.90
2022-09-12T05:16:20.724Z,60.24
2022-09-12T05:17:20.759Z,61.10
2022-09-12T05:18:20.759Z,60.39
2022-09-12T05:19:20.702Z,60.13
2022-09-12T05:20:20.711Z,58.63
2022-09-12T05:21:20.696Z,59.37
2022-09-12T05:22:20.649Z,58.99
2022-09-12T05:23:20.709Z,56.90
2022-09-12T05:24:20.674Z,60.26
2022-09-12T05:25:20.627Z,58.45
2022-09-12T05:26:20.614Z,61.10
2022-09-12T05:27:20.685Z,59.63
2022-09-12T05:28:20.605Z,59.01
2022-09-12T05:29:20.583Z,60.68
2022-09-12T05:30:20.665Z,59.69
2022-09-12T05:31:20.597Z,60.19
2022-09-12T05:32:20.588Z,59.64
2022-09-12T05:33:24.916Z,61.12
2022-09-12T05:34:21.539Z,58.96
2022-09-12T05:35:20.713Z,60.36
2022-09-12T05:36:20.542Z,59.77
2022-09-12T05:37:20.521Z,59.50
2022-09-12T05:38:20.531Z,60.59
2022-09-12T05:39:20.549Z,60.11
2022-09-12T05:40:20.453Z,59.88
2022-09-12T05:41:24.729Z,60.23
2022-09-12T05:42:21.500Z,59.78
2022-09-12T05:43:20.484Z,59.40
2022-09-12T05:44:20.573Z,59.28
2022-09-12T05:45:20.450Z,60.36
2022-09-12T05:46:20.412Z,59.85
2022-09-12T05:47:20.442Z,60.95
2022-09-12T05:48:20.469Z,59.85
2022-09-12T05:49:20.394Z,61.96
2022-09-12T05:50:20.463Z,59.44
2022-09-12T05:51:20.390Z,58.51
2022-09-12T05:52:20.401Z,60.48
2022-09-12T05:53:20.382Z,60.24
2022-09-12T05:54:20.474Z,57.71
2022-09-12T05:55:20.381Z,58.25
2022-09-12T05:56:20.348Z,56.95
2022-09-12T05:57:20.350Z,60.04
2022-09-12T05:58:20.412Z,56.45
2022-09-12T05:59:20.307Z,58.44
2022-09-12T06:00:20.314Z,57.56
2022-09-12T06:01:20.315Z,56.81
2022-09-12T06:02:20.376Z,59.34
2022-09-12T06:03:20.279Z,58.24
2022-09-12T06:04:21.140Z,59.03
2022-09-12T06:05:20.283Z,57.26
2022-09-12T06:06:20.237Z,56.84
2022-09-12T06:07:20.272Z,56.71
2022-09-12T06:08:20.218Z,58.97
2022-09-12T06:09:20.241Z,57.25
2022-09-12T06:10:20.237Z,57.59
2022-09-12T06:11:20.209Z,55.60
2022-09-12T06:12:20.210Z,58.70
2022-09-12T06:13:20.190Z,56.57
2022-09-12T06:14:21.244Z,59.82
2022-09-12T06:15:21.773Z,56.70
2022-09-12T06:16:20.246Z,55.81
2022-09-12T06:17:20.159Z,55.30
2022-09-12T06:18:20.214Z,54.51
2022-09-12T06:19:20.110Z,58.02
2022-09-12T06:20:20.131Z,57.05
2022-09-12T06:21:20.073Z,58.83
2022-09-12T06:22:20.133Z,58.00
2022-09-12T06:23:20.103Z,57.74
2022-09-12T06:24:20.097Z,57.78
2022-09-12T06:25:20.068Z,57.64
2022-09-12T06:26:20.100Z,59.67
2022-09-12T06:27:20.026Z,56.83
2022-09-12T06:28:20.084Z,56.49
2022-09-12T06:29:20.032Z,54.92
2022-09-12T06:30:24.765Z,56.59
2022-09-12T06:31:21.988Z,57.24
2022-09-12T06:32:19.991Z,57.52
2022-09-12T06:33:20.088Z,56.90
2022-09-12T06:34:19.962Z,53.75
2022-09-12T06:35:20.031Z,59.37
2022-09-12T06:36:19.978Z,56.80
2022-09-12T06:37:20.001Z,55.40
2022-09-12T06:38:20.173Z,57.21
2022-09-12T06:39:19.949Z,56.86
2022-09-12T06:40:19.992Z,58.30
2022-09-12T06:41:19.903Z,57.10
2022-09-12T06:42:20.001Z,58.52
2022-09-12T06:43:19.896Z,57.45
2022-09-12T06:44:19.885Z,53.14
2022-09-12T06:45:19.854Z,57.82
2022-09-12T06:46:19.919Z,57.37
2022-09-12T06:47:19.854Z,58.79
2022-09-12T06:48:19.854Z,54.67
2022-09-12T06:49:19.860Z,55.31
2022-09-12T06:50:19.872Z,56.01
2022-09-12T06:51:19.788Z,58.25
2022-09-12T06:52:19.901Z,57.05
2022-09-12T06:53:19.829Z,55.90
2022-09-12T06:54:19.793Z,55.93
2022-09-12T06:55:22.543Z,54.22
2022-09-12T06:56:20.765Z,57.87
2022-09-12T06:57:19.823Z,56.60
2022-09-12T06:58:20.681Z,56.24
2022-09-12T06:59:19.739Z,58.62
2022-09-12T07:00:19.725Z,56.86
2022-09-12T07:01:19.752Z,55.96
2022-09-12T07:02:19.771Z,56.53
2022-09-12T07:03:19.756Z,58.26
2022-09-12T07:04:19.668Z,58.97
2022-09-12T07:05:19.647Z,56.10
2022-09-12T07:06:19.763Z,57.54
2022-09-12T07:07:19.651Z,58.25
2022-09-12T07:08:19.668Z,57.75
2022-09-12T07:09:19.626Z,55.57
2022-09-12T07:10:22.316Z,52.20
2022-09-12T07:11:20.659Z,59.01
2022-09-12T07:12:19.608Z,56.62
2022-09-12T07:13:20.489Z,53.37
2022-09-12T07:14:19.625Z,54.38
2022-09-12T07:15:19.602Z,58.08
2022-09-12T07:16:20.186Z,56.53
2022-09-12T07:17:20.529Z,57.65
2022-09-12T07:18:19.549Z,55.44
2022-09-12T07:19:19.617Z,55.22
2022-09-12T07:20:19.491Z,53.81
2022-09-12T07:21:19.758Z,58.49
2022-09-12T07:22:19.516Z,58.94
2022-09-12T07:23:19.506Z,56.36
2022-09-12T07:24:19.478Z,57.84
2022-09-12T07:25:19.508Z,53.38
2022-09-12T07:26:19.453Z,53.82
2022-09-12T07:27:19.489Z,57.85
2022-09-12T07:28:19.436Z,56.12
2022-09-12T07:29:36.081Z,55.95
2022-09-12T07:30:21.453Z,55.84
2022-09-12T07:31:19.424Z,58.12
2022-09-12T07:32:19.453Z,55.20
2022-09-12T07:33:20.131Z,55.05
2022-09-12T07:34:19.410Z,57.31
2022-09-12T07:35:19.421Z,56.92
2022-09-12T07:36:19.389Z,56.66
2022-09-12T07:37:19.305Z,56.18
2022-09-12T07:38:19.329Z,54.36
2022-09-12T07:39:19.396Z,55.91
2022-09-12T07:40:19.368Z,54.62
2022-09-12T07:41:19.353Z,55.88
2022-09-12T07:42:19.334Z,54.77
2022-09-12T07:43:19.282Z,55.74
2022-09-12T07:44:19.297Z,55.33
2022-09-12T07:45:19.292Z,57.01
2022-09-12T07:46:19.368Z,55.49
2022-09-12T07:47:19.213Z,55.87
2022-09-12T07:48:19.198Z,58.51
2022-09-12T07:49:19.249Z,54.12
2022-09-12T07:50:19.234Z,54.71
2022-09-12T07:51:19.191Z,55.09
2022-09-12T07:52:19.240Z,55.93
2022-09-12T07:53:19.180Z,56.53
2022-09-12T07:54:19.248Z,56.76
2022-09-12T07:55:19.181Z,55.85
2022-09-12T07:56:19.173Z,56.04
2022-09-12T07:57:19.200Z,56.26
2022-09-12T07:58:19.308Z,54.66
2022-09-12T07:59:41.437Z,55.60
2022-09-12T08:00:21.163Z,55.01
2022-09-12T08:01:19.136Z,56.44
2022-09-12T08:02:19.689Z,58.20
2022-09-12T08:03:19.123Z,57.96
2022-09-12T08:04:19.106Z,55.82
2022-09-12T08:05:19.052Z,56.24
2022-09-12T08:06:19.066Z,51.98
2022-09-12T08:07:19.047Z,54.44
2022-09-12T08:08:19.043Z,54.16
2022-09-12T08:09:19.032Z,56.40
2022-09-12T08:10:18.998Z,59.18
2022-09-12T08:11:18.988Z,57.98
2022-09-12T08:12:18.982Z,54.73
2022-09-12T08:13:19.020Z,57.66
2022-09-12T08:14:18.961Z,52.91
2022-09-12T08:15:18.962Z,56.16
2022-09-12T08:16:18.922Z,55.67
2022-09-12T08:17:19.077Z,50.93
2022-09-12T08:18:18.967Z,55.01
2022-09-12T08:19:18.914Z,57.39
2022-09-12T08:20:18.900Z,55.95
2022-09-12T08:21:18.985Z,57.51
2022-09-12T08:22:18.922Z,55.53
2022-09-12T08:23:18.936Z,55.12
2022-09-12T08:24:18.893Z,55.74
2022-09-12T08:25:18.905Z,57.59
2022-09-12T08:26:18.833Z,57.19
2022-09-12T08:27:18.865Z,57.88
2022-09-12T08:28:18.848Z,56.74
2022-09-12T08:29:18.846Z,57.53
2022-09-12T08:30:18.822Z,56.42
2022-09-12T08:31:18.815Z,53.73
2022-09-12T08:32:18.832Z,55.73
2022-09-12T08:33:18.834Z,54.49
2022-09-12T08:34:18.846Z,54.04
2022-09-12T08:35:18.856Z,55.27
2022-09-12T08:36:18.883Z,58.73
2022-09-12T08:37:18.808Z,57.86
2022-09-12T08:38:18.813Z,55.25
2022-09-12T08:39:23.764Z,56.78
2022-09-12T08:40:18.809Z,58.48
2022-09-12T08:41:18.821Z,54.69
2022-09-12T08:42:18.737Z,58.99
2022-09-12T08:43:18.763Z,54.50
2022-09-12T08:44:18.793Z,55.09
2022-09-12T08:45:18.732Z,54.99
2022-09-12T08:46:18.745Z,54.39
2022-09-12T08:47:18.720Z,56.58
2022-09-12T08:48:18.658Z,55.93
2022-09-12T08:49:18.700Z,56.14
2022-09-12T08:50:18.673Z,54.04
2022-09-12T08:51:18.599Z,52.40
2022-09-12T08:52:18.647Z,53.62
2022-09-12T08:53:18.583Z,54.62
2022-09-12T08:54:18.577Z,55.12
2022-09-12T08:55:18.614Z,56.77
2022-09-12T08:56:18.730Z,53.60
2022-09-12T08:57:18.574Z,54.76
2022-09-12T08:58:18.564Z,54.61
2022-09-12T08:59:18.504Z,52.76
2022-09-12T09:00:19.170Z,56.34
2022-09-12T09:01:18.576Z,55.60
2022-09-12T09:02:18.566Z,52.88
2022-09-12T09:03:18.519Z,55.99
2022-09-12T09:04:18.525Z,56.32
2022-09-12T09:05:18.530Z,55.49
2022-09-12T09:06:18.473Z,53.13
2022-09-12T09:07:18.448Z,53.98
2022-09-12T09:08:18.443Z,58.38
2022-09-12T09:09:18.457Z,53.95
2022-09-12T09:10:18.550Z,53.29
2022-09-12T09:11:18.440Z,54.77
2022-09-12T09:12:18.388Z,53.57
2022-09-12T09:13:18.408Z,54.54
2022-09-12T09:14:18.433Z,56.41
2022-09-12T09:15:18.376Z,57.83
2022-09-12T09:16:18.434Z,56.42
2022-09-12T09:17:18.350Z,55.58
2022-09-12T09:18:18.362Z,54.19
2022-09-12T09:19:18.393Z,56.80
2022-09-12T09:20:18.341Z,57.73
2022-09-12T09:21:18.362Z,57.38
2022-09-12T09:22:18.313Z,56.78
2022-09-12T09:23:18.323Z,53.51
2022-09-12T09:24:18.357Z,59.16
2022-09-12T09:25:22.588Z,56.20
2022-09-12T09:26:19.230Z,56.39
2022-09-12T09:27:37.287Z,56.80
2022-09-12T09:28:20.270Z,56.12
2022-09-12T09:29:18.242Z,56.19
2022-09-12T09:30:18.319Z,56.44
2022-09-12T09:31:18.273Z,56.61
2022-09-12T09:32:18.179Z,56.68
2022-09-12T09:33:18.214Z,52.87
2022-09-12T09:34:18.168Z,55.58
2022-09-12T09:35:18.146Z,54.52
2022-09-12T09:36:18.133Z,56.93
2022-09-12T09:37:18.145Z,55.48
2022-09-12T09:38:18.143Z,56.21
2022-09-12T09:39:18.109Z,56.20
2022-09-12T09:40:18.274Z,57.35
2022-09-12T09:41:18.112Z,57.56
2022-09-12T09:42:18.115Z,57.17
2022-09-12T09:43:18.149Z,57.21
2022-09-12T09:44:18.626Z,56.71
2022-09-12T09:45:18.139Z,56.17
2022-09-12T09:46:18.088Z,57.95
2022-09-12T09:47:18.008Z,52.00
2022-09-12T09:48:18.032Z,59.01
2022-09-12T09:49:18.029Z,53.26
2022-09-12T09:50:18.017Z,56.19
2022-09-12T09:51:17.997Z,55.74
2022-09-12T09:52:17.994Z,52.73
2022-09-12T09:53:18.027Z,53.67
2022-09-12T09:54:17.990Z,54.80
2022-09-12T09:55:17.917Z,55.34
2022-09-12T09:56:21.407Z,53.19
2022-09-12T09:57:18.927Z,60.16
2022-09-12T09:58:17.971Z,55.65
2022-09-12T09:59:18.008Z,55.43
2022-09-12T10:00:17.911Z,54.47
2022-09-12T10:01:17.974Z,54.97
2022-09-12T10:02:23.157Z,56.65
2022-09-12T10:03:19.935Z,54.65
2022-09-12T10:04:17.931Z,57.68
2022-09-12T10:05:17.919Z,59.18
2022-09-12T10:06:17.861Z,58.26
2022-09-12T10:07:17.829Z,54.63
2022-09-12T10:08:17.835Z,56.37
2022-09-12T10:09:17.845Z,54.44
2022-09-12T10:10:17.803Z,53.59
2022-09-12T10:11:17.796Z,54.63
2022-09-12T10:12:17.806Z,55.71
2022-09-12T10:13:17.812Z,57.72
2022-09-12T10:14:17.764Z,57.15
2022-09-12T10:15:17.800Z,56.59
2022-09-12T10:16:17.755Z,57.23
2022-09-12T10:17:17.750Z,55.68
2022-09-12T10:18:17.783Z,56.50
2022-09-12T10:19:17.783Z,56.29
2022-09-12T10:20:21.497Z,58.33
2022-09-12T10:21:18.708Z,53.59
2022-09-12T10:22:17.811Z,55.92
2022-09-12T10:23:17.695Z,54.01
2022-09-12T10:24:17.703Z,56.81
2022-09-12T10:25:17.654Z,55.30
2022-09-12T10:26:17.633Z,57.28
2022-09-12T10:27:17.638Z,57.90
2022-09-12T10:28:17.642Z,55.04
2022-09-12T10:29:17.662Z,53.46
2022-09-12T10:30:17.595Z,54.10
2022-09-12T10:31:17.717Z,58.83
2022-09-12T10:32:17.600Z,56.27
2022-09-12T10:33:17.660Z,55.49
2022-09-12T10:34:17.573Z,56.90
2022-09-12T10:35:17.602Z,56.77
2022-09-12T10:36:17.541Z,53.71
2022-09-12T10:37:17.598Z,55.13
2022-09-12T10:38:17.524Z,55.45
2022-09-12T10:39:17.518Z,53.80
2022-09-12T10:40:17.569Z,55.24
2022-09-12T10:41:18.110Z,56.07
2022-09-12T10:42:21.553Z,53.16
2022-09-12T10:43:19.496Z,53.00
2022-09-12T10:44:17.503Z,56.81
2022-09-12T10:45:17.439Z,55.04
2022-09-12T10:46:17.521Z,52.13
2022-09-12T10:47:17.453Z,53.14
2022-09-12T10:48:17.477Z,49.55
2022-09-12T10:49:17.418Z,51.50
2022-09-12T10:50:22.644Z,53.08
2022-09-12T10:51:19.407Z,50.99
2022-09-12T10:52:17.446Z,53.59
2022-09-12T10:53:17.387Z,55.88
2022-09-12T10:54:17.416Z,54.44
2022-09-12T10:55:17.370Z,53.89
2022-09-12T10:56:17.361Z,53.96
2022-09-12T10:57:17.334Z,52.72
2022-09-12T10:58:17.325Z,54.80
2022-09-12T10:59:20.089Z,53.91
2022-09-12T11:00:18.367Z,53.91
2022-09-12T11:01:17.362Z,60.19
2022-09-12T11:02:17.359Z,56.06
2022-09-12T11:03:17.299Z,55.00
2022-09-12T11:04:17.284Z,55.29
2022-09-12T11:05:21.968Z,54.03
2022-09-12T11:06:19.267Z,56.47
2022-09-12T11:07:17.265Z,54.97
2022-09-12T11:08:17.279Z,56.80
2022-09-12T11:09:17.303Z,53.15
2022-09-12T11:10:17.247Z,54.69
2022-09-12T11:11:17.199Z,54.62
2022-09-12T11:12:17.171Z,50.69
2022-09-12T11:13:17.185Z,53.33
2022-09-12T11:14:17.194Z,53.39
2022-09-12T11:15:17.917Z,52.78
2022-09-12T11:16:17.268Z,53.90
2022-09-12T11:17:17.166Z,52.51
2022-09-12T11:18:17.166Z,52.00
2022-09-12T11:19:18.088Z,53.80
2022-09-12T11:20:17.145Z,52.90
2022-09-12T11:21:17.082Z,54.80
2022-09-12T11:22:17.082Z,55.58
2022-09-12T11:23:17.085Z,52.97
2022-09-12T11:24:17.085Z,53.31
2022-09-12T11:25:17.024Z,53.93
2022-09-12T11:26:17.058Z,54.23
2022-09-12T11:27:17.086Z,55.42
2022-09-12T11:28:17.090Z,55.35
2022-09-12T11:29:17.033Z,53.89
2022-09-12T11:30:17.045Z,54.36
2022-09-12T11:31:17.120Z,53.21
2022-09-12T11:32:16.990Z,51.88
2022-09-12T11:33:17.027Z,54.68
2022-09-12T11:34:17.059Z,53.16
2022-09-12T11:35:17.786Z,55.69
2022-09-12T11:36:17.945Z,54.13
2022-09-12T11:37:18.147Z,55.00
2022-09-12T11:38:18.008Z,54.02
2022-09-12T11:39:16.951Z,53.89
2022-09-12T11:40:17.010Z,54.07
2022-09-12T11:41:16.940Z,53.32
2022-09-12T11:42:16.933Z,56.05
2022-09-12T11:43:16.890Z,57.43
2022-09-12T11:44:16.877Z,55.08
2022-09-12T11:45:16.875Z,54.76
2022-09-12T11:46:16.917Z,49.34
2022-09-12T11:47:16.855Z,55.19
2022-09-12T11:48:16.861Z,52.78
2022-09-12T11:49:16.846Z,54.26
2022-09-12T11:50:16.811Z,51.88
2022-09-12T11:51:16.789Z,56.58
2022-09-12T11:52:16.802Z,55.08
2022-09-12T11:53:16.973Z,53.06
2022-09-12T11:54:16.803Z,50.90
2022-09-12T11:55:16.839Z,53.22
2022-09-12T11:56:16.755Z,54.70
2022-09-12T11:57:16.768Z,52.98
2022-09-12T11:58:16.729Z,55.00
2022-09-12T11:59:16.734Z,54.91
2022-09-12T12:00:16.762Z,56.07
2022-09-12T12:01:16.729Z,52.02
2022-09-12T12:02:16.776Z,53.89
2022-09-12T12:03:16.746Z,52.96
2022-09-12T12:04:16.714Z,53.99
2022-09-12T12:05:16.732Z,56.52
2022-09-12T12:06:16.649Z,57.03
2022-09-12T12:07:16.693Z,55.35
2022-09-12T12:08:16.678Z,55.00
2022-09-12T12:09:16.656Z,54.69
2022-09-12T12:10:16.638Z,56.68
2022-09-12T12:11:16.626Z,60.63
2022-09-12T12:12:16.675Z,56.77
2022-09-12T12:13:16.605Z,52.52
2022-09-12T12:14:16.599Z,53.71
2022-09-12T12:15:16.606Z,54.44
2022-09-12T12:16:16.657Z,52.36
2022-09-12T12:17:16.559Z,54.75
2022-09-12T12:18:16.535Z,54.97
2022-09-12T12:19:16.574Z,52.68
2022-09-12T12:20:16.550Z,53.82
2022-09-12T12:21:16.511Z,51.74
2022-09-12T12:22:16.546Z,52.77
2022-09-12T12:23:16.494Z,53.93
2022-09-12T12:24:16.490Z,54.32
2022-09-12T12:25:21.325Z,53.67
2022-09-12T12:26:18.484Z,52.68
2022-09-12T12:27:16.494Z,55.31
2022-09-12T12:28:16.481Z,54.83
2022-09-12T12:29:16.500Z,55.56
2022-09-12T12:30:16.505Z,53.92
2022-09-12T12:31:16.472Z,52.25
2022-09-12T12:32:16.424Z,51.64
2022-09-12T12:33:16.414Z,53.96
2022-09-12T12:34:16.770Z,52.05
2022-09-12T12:35:16.426Z,52.28
2022-09-12T12:36:16.363Z,53.50
2022-09-12T12:37:16.355Z,53.22
2022-09-12T12:38:16.331Z,56.83
2022-09-12T12:39:16.348Z,54.87
2022-09-12T12:40:16.426Z,56.43
2022-09-12T12:41:16.327Z,54.32
2022-09-12T12:42:19.154Z,52.55
2022-09-12T12:43:17.331Z,55.47
2022-09-12T12:44:16.298Z,56.53
2022-09-12T12:45:16.280Z,55.14
2022-09-12T12:46:16.314Z,55.23
2022-09-12T12:47:16.261Z,55.16
2022-09-12T12:48:16.237Z,53.14
2022-09-12T12:49:16.443Z,53.91
2022-09-12T12:50:16.247Z,52.29
2022-09-12T12:51:16.248Z,54.09
2022-09-12T12:52:16.227Z,53.18
2022-09-12T12:53:17.124Z,56.13
2022-09-12T12:54:16.279Z,53.60
2022-09-12T12:55:16.202Z,56.31
2022-09-12T12:56:16.171Z,54.44
2022-09-12T12:57:16.153Z,52.80
2022-09-12T12:58:16.161Z,52.56
2022-09-12T12:59:16.165Z,50.95
2022-09-12T13:00:16.138Z,54.22
2022-09-12T13:01:16.169Z,51.52
2022-09-12T13:02:16.148Z,52.72
2022-09-12T13:03:16.078Z,51.52
2022-09-12T13:04:16.122Z,53.23
2022-09-12T13:05:16.117Z,54.20
2022-09-12T13:06:16.124Z,55.93
2022-09-12T13:07:16.055Z,54.19
2022-09-12T13:08:16.147Z,51.73
2022-09-12T13:09:16.092Z,52.65
2022-09-12T13:10:16.074Z,52.38
2022-09-12T13:11:16.031Z,52.90
2022-09-12T13:12:16.022Z,54.48
2022-09-12T13:13:16.051Z,53.65
2022-09-12T13:14:16.011Z,52.08
2022-09-12T13:15:16.119Z,53.41
2022-09-12T13:16:16.061Z,51.94
2022-09-12T13:17:16.029Z,51.14
2022-09-12T13:18:16.013Z,52.15
2022-09-12T13:19:18.343Z,52.67
2022-09-12T13:20:27.970Z,50.81
2022-09-12T13:21:17.983Z,54.24
2022-09-12T13:22:15.935Z,50.56
2022-09-12T13:23:15.949Z,53.68
2022-09-12T13:24:16.005Z,53.53
2022-09-12T13:25:15.910Z,50.03
2022-09-12T13:26:15.871Z,52.37
2022-09-12T13:27:16.006Z,53.41
2022-09-12T13:28:15.873Z,54.01
2022-09-12T13:29:15.902Z,54.58
2022-09-12T13:30:15.873Z,54.97
2022-09-12T13:31:16.801Z,51.93
2022-09-12T13:32:15.861Z,53.82
2022-09-12T13:33:15.796Z,55.53
2022-09-12T13:34:15.792Z,56.16
2022-09-12T13:35:15.788Z,57.35
2022-09-12T13:36:15.809Z,54.88
2022-09-12T13:37:15.779Z,56.04
2022-09-12T13:38:15.806Z,53.02
2022-09-12T13:39:15.789Z,54.16
2022-09-12T13:40:15.767Z,52.70
2022-09-12T13:41:15.755Z,53.94
2022-09-12T13:42:15.732Z,54.40
2022-09-12T13:43:15.704Z,53.44
2022-09-12T13:44:15.745Z,53.15
2022-09-12T13:45:15.755Z,52.18
2022-09-12T13:46:15.756Z,53.21
2022-09-12T13:47:15.659Z,53.20
2022-09-12T13:48:15.674Z,53.56
2022-09-12T13:49:15.744Z,53.19
2022-09-12T13:50:16.169Z,51.46
2022-09-12T13:51:15.626Z,52.33
2022-09-12T13:52:15.663Z,51.16
2022-09-12T13:53:15.681Z,52.68
2022-09-12T13:54:15.678Z,52.62
2022-09-12T13:55:15.655Z,54.31
2022-09-12T13:56:15.567Z,54.60
2022-09-12T13:57:15.583Z,53.03
2022-09-12T13:58:15.629Z,53.32
2022-09-12T13:59:15.615Z,53.94
2022-09-12T14:00:15.581Z,54.09
2022-09-12T14:01:15.581Z,53.84
2022-09-12T14:02:15.571Z,54.57
2022-09-12T14:03:15.520Z,53.77
2022-09-12T14:04:15.519Z,52.78
2022-09-12T14:05:15.513Z,51.04
2022-09-12T14:06:15.545Z,52.80
2022-09-12T14:07:15.507Z,52.91
2022-09-12T14:08:15.478Z,53.77
2022-09-12T14:09:15.517Z,52.52
2022-09-12T14:10:15.530Z,52.89
2022-09-12T14:11:15.416Z,54.34
2022-09-12T14:12:15.428Z,52.92
2022-09-12T14:13:15.457Z,54.46
2022-09-12T14:14:15.467Z,51.86
2022-09-12T14:15:15.444Z,50.77
2022-09-12T14:16:15.415Z,51.33
2022-09-12T14:17:16.299Z,53.27
2022-09-12T14:18:16.388Z,54.79
2022-09-12T14:19:15.408Z,53.80
2022-09-12T14:20:15.350Z,52.28
2022-09-12T14:21:15.367Z,55.76
2022-09-12T14:22:15.293Z,52.57
2022-09-12T14:23:15.339Z,54.15
2022-09-12T14:24:15.479Z,53.74
2022-09-12T14:25:15.360Z,51.96
2022-09-12T14:26:15.305Z,53.58
2022-09-12T14:27:15.310Z,55.00
2022-09-12T14:28:15.325Z,55.46
2022-09-12T14:29:15.315Z,55.15
2022-09-12T14:30:15.227Z,53.82
2022-09-12T14:31:15.329Z,52.83
2022-09-12T14:32:15.260Z,54.76
2022-09-12T14:33:15.212Z,53.98
2022-09-12T14:34:15.242Z,54.67
2022-09-12T14:35:15.215Z,55.24
2022-09-12T14:36:15.198Z,54.91
2022-09-12T14:37:15.211Z,55.11
2022-09-12T14:38:15.154Z,55.51
2022-09-12T14:39:15.186Z,55.00
2022-09-12T14:40:15.207Z,54.99
2022-09-12T14:41:15.187Z,52.88
2022-09-12T14:42:15.145Z,54.64
2022-09-12T14:43:15.164Z,53.96
2022-09-12T14:44:15.146Z,54.76
2022-09-12T14:45:15.107Z,56.54
2022-09-12T14:46:15.163Z,55.63
2022-09-12T14:47:15.084Z,54.96
2022-09-12T14:48:15.723Z,55.81
2022-09-12T14:49:15.137Z,58.14
2022-09-12T14:50:15.047Z,54.81
2022-09-12T14:51:15.055Z,53.96
2022-09-12T14:52:15.027Z,55.31
2022-09-12T14:53:15.040Z,55.07
2022-09-12T14:54:15.074Z,54.86
2022-09-12T14:55:15.101Z,57.13
2022-09-12T14:56:15.020Z,53.56
2022-09-12T14:57:15.030Z,55.08
2022-09-12T14:58:14.954Z,55.05
2022-09-12T14:59:14.994Z,56.39
2022-09-12T15:00:14.973Z,54.39
2022-09-12T15:01:15.032Z,57.05
2022-09-12T15:02:15.068Z,56.92
2022-09-12T15:03:14.943Z,57.02
2022-09-12T15:04:14.955Z,55.91
2022-09-12T15:05:14.968Z,56.55
2022-09-12T15:06:15.621Z,54.60
2022-09-12T15:07:15.664Z,55.74
2022-09-12T15:08:14.887Z,55.94
2022-09-12T15:09:14.911Z,56.94
2022-09-12T15:10:14.872Z,54.90
2022-09-12T15:11:14.906Z,55.54
2022-09-12T15:12:14.837Z,54.43
2022-09-12T15:13:14.816Z,55.15
2022-09-12T15:14:14.864Z,57.45
2022-09-12T15:15:14.885Z,58.25
2022-09-12T15:16:14.898Z,56.62
2022-09-12T15:17:14.817Z,57.12
2022-09-12T15:18:14.813Z,57.00
2022-09-12T15:19:14.777Z,59.42
2022-09-12T15:20:14.833Z,53.59
2022-09-12T15:21:14.901Z,56.19
2022-09-12T15:22:14.739Z,56.01
2022-09-12T15:23:14.808Z,55.80
2022-09-12T15:24:14.730Z,53.88
2022-09-12T15:25:14.750Z,53.30
2022-09-12T15:26:14.788Z,53.41
2022-09-12T15:27:14.703Z,57.33
2022-09-12T15:28:14.743Z,54.70
2022-09-12T15:29:14.676Z,53.13
2022-09-12T15:30:14.663Z,52.47
2022-09-12T15:31:14.722Z,56.53
2022-09-12T15:32:14.670Z,54.92
2022-09-12T15:33:14.722Z,55.38
2022-09-12T15:34:14.667Z,53.74
2022-09-12T15:35:14.615Z,55.10
2022-09-12T15:36:14.642Z,57.03
2022-09-12T15:37:14.611Z,51.44
2022-09-12T15:38:14.590Z,56.68